Kislovodsk, Russia
Current Conditions -  °F | °C
As of 5:00 AM on Wednesday 22 Oct 2014 (Local Time) from URMM Reporting Station
Broken Clouds Broken Clouds  
Wind Chill: 37°   Ceiling: 10000
Heat Index: 41°   Visibility: 6mi
Dew Point: 39°   Wind: 7mph
Humidity: 93%   Direction: 300°WNW
Pressure: 29.83"   Gusts: NA
Location:  43.91°N, 42.72°E
Report Text: URMM 220200Z 30003MPS 9999 BKN100 05/04 Q1010 R30/70D NOSIG RMK QFE729/0973
Loading
Personal Weather Stations






























Interactive Weather Map
Tropical Storm Tracking
New forecast layout! Learn more

10-Day Weather Forecast

Advertisements
Track Severe Weather on mobile